Pagrindinis puslapis
METAR-TAF:

METAR-TAF

Oro uostai :

Naksas, Graikija

platuma: 37-04-47N, ilguma: 025-22-01E, Aukštis: 3 m

Dabartinis oras

Ataskaita buvo paskelbta 4 valandos ir 36 minutes, ne 08:50 UTC
Vėjas 6 kt iš Šiaurės
Temperatūra 20°C
Drėgmė 49%
Slėgis 1010 hPa
Matomumas 10 km arba daugiau
nėra debesų žemiau 1500 m ir nėra kamuolinių lietaus debesų

METAR: LGNX 120850Z 36006KT CAVOK 20/09 Q1010

Laikas: 16:26 (13:26 UTC)


TAF: trūkstamas

Orai ataskaitas ir orų prognozės (METAR, TAF).

turimą stotys yra geltonos ir raudonos taškus žemėlapyje.

Perkelti pele per norėdami pamatyti stoties vardą.

Tada spustelėkite, norėdami matyti oro stebėjimo ir prognozės.

Norėdami pakeisti žemėlapį: spustelėkite ant žalios mygtukų su juodo kryžiaus žemyn,; žalią mygtuką su brūkšneliu, jei norite nutolinti; arba žalių rodyklių gretimoms žemėlapius.


METAR-TAF: